Terminal Aerodrome Forecast
Issued by NWS Cleveland, OH

Home | Current Version | Previous Version | Text Only | Print | Product List | Glossary On
Versions: 1 2 3 4 5 6 7 8 9 10 11 12 13 14 15 16 17 18 19 20 21 22
000
FTUS41 KCLE 211500 AAC
TAFTOL
TAF AMD
KTOL 211529Z 2115/2212 18003KT 5SM BR OVC015
      TEMPO 2115/2117 3SM BR
     FM211700 18003KT P6SM BKN030 OVC060
     FM212000 20005KT P6SM SCT030 BKN060=

USA.gov is the U.S. government's official web portal to all federal, state and local government web resources and services.